sensor_id;sensor_type;location;lat;lon;timestamp;temperature;humidity
59999;DHT22;45859;51.378;6.736;2023-06-14T00:02:03;19.10;99.90
59999;DHT22;45859;51.378;6.736;2023-06-14T00:04:30;19.20;99.90
59999;DHT22;45859;51.378;6.736;2023-06-14T00:06:56;19.20;99.90
59999;DHT22;45859;51.378;6.736;2023-06-14T00:09:22;19.20;99.90
59999;DHT22;45859;51.378;6.736;2023-06-14T00:11:48;19.10;99.90
59999;DHT22;45859;51.378;6.736;2023-06-14T00:14:14;19.10;99.90
59999;DHT22;45859;51.378;6.736;2023-06-14T00:16:40;19.00;99.90
59999;DHT22;45859;51.378;6.736;2023-06-14T00:19:08;18.90;99.90
59999;DHT22;45859;51.378;6.736;2023-06-14T00:21:35;18.90;99.90
59999;DHT22;45859;51.378;6.736;2023-06-14T00:24:02;18.80;99.90
59999;DHT22;45859;51.378;6.736;2023-06-14T00:26:27;18.70;99.90
59999;DHT22;45859;51.378;6.736;2023-06-14T00:28:56;18.80;99.90
59999;DHT22;45859;51.378;6.736;2023-06-14T00:31:22;18.80;99.90
59999;DHT22;45859;51.378;6.736;2023-06-14T00:33:48;18.70;99.90
59999;DHT22;45859;51.378;6.736;2023-06-14T00:36:14;18.80;99.90
59999;DHT22;45859;51.378;6.736;2023-06-14T00:38:40;18.80;99.90
59999;DHT22;45859;51.378;6.736;2023-06-14T00:41:05;18.60;99.90
59999;DHT22;45859;51.378;6.736;2023-06-14T00:43:31;18.60;99.90
59999;DHT22;45859;51.378;6.736;2023-06-14T00:45:57;18.50;99.90
59999;DHT22;45859;51.378;6.736;2023-06-14T00:48:24;18.60;99.90
59999;DHT22;45859;51.378;6.736;2023-06-14T00:50:50;18.50;99.90
59999;DHT22;45859;51.378;6.736;2023-06-14T00:53:18;18.50;99.90
59999;DHT22;45859;51.378;6.736;2023-06-14T00:55:46;18.40;99.90
59999;DHT22;45859;51.378;6.736;2023-06-14T00:58:12;18.40;99.90
59999;DHT22;45859;51.378;6.736;2023-06-14T01:00:38;18.40;99.90
59999;DHT22;45859;51.378;6.736;2023-06-14T01:03:04;18.40;99.90
59999;DHT22;45859;51.378;6.736;2023-06-14T01:05:31;18.30;99.90
59999;DHT22;45859;51.378;6.736;2023-06-14T01:10:52;18.20;99.90
59999;DHT22;45859;51.378;6.736;2023-06-14T01:13:35;18.10;99.90
59999;DHT22;45859;51.378;6.736;2023-06-14T01:16:02;18.10;99.90
59999;DHT22;45859;51.378;6.736;2023-06-14T01:18:28;18.10;99.90
59999;DHT22;45859;51.378;6.736;2023-06-14T01:20:55;18.10;99.90
59999;DHT22;45859;51.378;6.736;2023-06-14T01:23:22;18.00;99.90
59999;DHT22;45859;51.378;6.736;2023-06-14T01:25:49;18.00;99.90
59999;DHT22;45859;51.378;6.736;2023-06-14T01:28:19;17.90;99.90
59999;DHT22;45859;51.378;6.736;2023-06-14T01:30:48;17.90;99.90
59999;DHT22;45859;51.378;6.736;2023-06-14T01:33:17;17.90;99.90
59999;DHT22;45859;51.378;6.736;2023-06-14T01:35:45;17.90;99.90
59999;DHT22;45859;51.378;6.736;2023-06-14T01:38:13;17.80;99.90
59999;DHT22;45859;51.378;6.736;2023-06-14T01:40:39;17.80;99.90
59999;DHT22;45859;51.378;6.736;2023-06-14T01:43:05;17.70;99.90
59999;DHT22;45859;51.378;6.736;2023-06-14T01:45:33;17.80;99.90
59999;DHT22;45859;51.378;6.736;2023-06-14T01:47:59;17.80;99.90
59999;DHT22;45859;51.378;6.736;2023-06-14T01:50:31;17.80;99.90
59999;DHT22;45859;51.378;6.736;2023-06-14T01:52:57;17.80;99.90
59999;DHT22;45859;51.378;6.736;2023-06-14T01:55:23;17.80;99.90
59999;DHT22;45859;51.378;6.736;2023-06-14T01:57:51;17.70;99.90
59999;DHT22;45859;51.378;6.736;2023-06-14T02:00:17;17.70;99.90
59999;DHT22;45859;51.378;6.736;2023-06-14T02:02:44;17.70;99.90
59999;DHT22;45859;51.378;6.736;2023-06-14T02:05:10;17.70;99.90
59999;DHT22;45859;51.378;6.736;2023-06-14T02:07:36;17.70;99.90
59999;DHT22;45859;51.378;6.736;2023-06-14T02:10:03;17.70;99.90
59999;DHT22;45859;51.378;6.736;2023-06-14T02:12:29;17.70;99.90
59999;DHT22;45859;51.378;6.736;2023-06-14T02:14:55;17.70;99.90
59999;DHT22;45859;51.378;6.736;2023-06-14T02:17:22;17.60;99.90
59999;DHT22;45859;51.378;6.736;2023-06-14T02:19:48;17.60;99.90
59999;DHT22;45859;51.378;6.736;2023-06-14T02:22:15;17.60;99.90
59999;DHT22;45859;51.378;6.736;2023-06-14T02:24:41;17.60;99.90
59999;DHT22;45859;51.378;6.736;2023-06-14T02:27:07;17.50;99.90
59999;DHT22;45859;51.378;6.736;2023-06-14T02:29:36;17.50;99.90
59999;DHT22;45859;51.378;6.736;2023-06-14T02:32:01;17.40;99.90
59999;DHT22;45859;51.378;6.736;2023-06-14T02:34:27;17.40;99.90
59999;DHT22;45859;51.378;6.736;2023-06-14T02:36:53;17.30;99.90
59999;DHT22;45859;51.378;6.736;2023-06-14T02:39:18;17.20;99.90
59999;DHT22;45859;51.378;6.736;2023-06-14T02:41:46;17.20;99.90
59999;DHT22;45859;51.378;6.736;2023-06-14T02:44:13;17.10;99.90
59999;DHT22;45859;51.378;6.736;2023-06-14T02:46:39;17.10;99.90
59999;DHT22;45859;51.378;6.736;2023-06-14T02:49:05;17.00;99.90
59999;DHT22;45859;51.378;6.736;2023-06-14T02:51:31;17.00;99.90
59999;DHT22;45859;51.378;6.736;2023-06-14T02:53:56;17.00;99.90
59999;DHT22;45859;51.378;6.736;2023-06-14T02:56:22;16.90;99.90
59999;DHT22;45859;51.378;6.736;2023-06-14T02:58:48;16.90;99.90
59999;DHT22;45859;51.378;6.736;2023-06-14T03:01:14;16.80;99.90
59999;DHT22;45859;51.378;6.736;2023-06-14T03:03:40;16.80;99.90
59999;DHT22;45859;51.378;6.736;2023-06-14T03:06:06;16.80;99.90
59999;DHT22;45859;51.378;6.736;2023-06-14T03:08:33;16.70;99.90
59999;DHT22;45859;51.378;6.736;2023-06-14T03:11:04;16.70;99.90
59999;DHT22;45859;51.378;6.736;2023-06-14T03:13:37;16.70;99.90
59999;DHT22;45859;51.378;6.736;2023-06-14T03:16:04;16.70;99.90
59999;DHT22;45859;51.378;6.736;2023-06-14T03:18:30;16.60;99.90
59999;DHT22;45859;51.378;6.736;2023-06-14T03:21:04;16.60;99.90
59999;DHT22;45859;51.378;6.736;2023-06-14T03:23:30;16.60;99.90
59999;DHT22;45859;51.378;6.736;2023-06-14T03:25:56;16.60;99.90
59999;DHT22;45859;51.378;6.736;2023-06-14T03:28:22;16.60;99.90
59999;DHT22;45859;51.378;6.736;2023-06-14T03:30:48;16.60;99.90
59999;DHT22;45859;51.378;6.736;2023-06-14T03:33:14;16.60;99.90
59999;DHT22;45859;51.378;6.736;2023-06-14T03:35:41;16.60;99.90
59999;DHT22;45859;51.378;6.736;2023-06-14T03:38:06;16.50;99.90
59999;DHT22;45859;51.378;6.736;2023-06-14T03:40:32;16.50;99.90
59999;DHT22;45859;51.378;6.736;2023-06-14T03:42:58;16.50;99.90
59999;DHT22;45859;51.378;6.736;2023-06-14T03:45:24;16.50;99.90
59999;DHT22;45859;51.378;6.736;2023-06-14T03:47:49;16.40;99.90
59999;DHT22;45859;51.378;6.736;2023-06-14T03:50:16;16.40;99.90
59999;DHT22;45859;51.378;6.736;2023-06-14T03:52:42;16.40;99.90
59999;DHT22;45859;51.378;6.736;2023-06-14T03:55:09;16.50;99.90
59999;DHT22;45859;51.378;6.736;2023-06-14T03:57:35;16.50;99.90
59999;DHT22;45859;51.378;6.736;2023-06-14T04:00:02;16.50;99.90
59999;DHT22;45859;51.378;6.736;2023-06-14T04:02:30;16.50;99.90
59999;DHT22;45859;51.378;6.736;2023-06-14T04:04:56;16.50;99.90
59999;DHT22;45859;51.378;6.736;2023-06-14T04:07:22;16.60;99.90
59999;DHT22;45859;51.378;6.736;2023-06-14T04:09:49;16.60;99.90
59999;DHT22;45859;51.378;6.736;2023-06-14T04:12:14;16.60;99.90
59999;DHT22;45859;51.378;6.736;2023-06-14T04:14:40;16.70;99.90
59999;DHT22;45859;51.378;6.736;2023-06-14T04:17:06;16.70;99.90
59999;DHT22;45859;51.378;6.736;2023-06-14T04:19:32;16.70;99.90
59999;DHT22;45859;51.378;6.736;2023-06-14T04:21:58;16.80;99.90
59999;DHT22;45859;51.378;6.736;2023-06-14T04:24:28;16.80;99.90
59999;DHT22;45859;51.378;6.736;2023-06-14T04:27:00;16.90;99.90
59999;DHT22;45859;51.378;6.736;2023-06-14T04:29:27;16.90;99.90
59999;DHT22;45859;51.378;6.736;2023-06-14T04:31:55;17.00;99.90
59999;DHT22;45859;51.378;6.736;2023-06-14T04:34:25;17.10;99.90
59999;DHT22;45859;51.378;6.736;2023-06-14T04:36:55;17.20;99.90
59999;DHT22;45859;51.378;6.736;2023-06-14T04:39:22;17.20;99.90
59999;DHT22;45859;51.378;6.736;2023-06-14T04:41:49;17.30;99.90
59999;DHT22;45859;51.378;6.736;2023-06-14T04:44:18;17.30;99.90
59999;DHT22;45859;51.378;6.736;2023-06-14T04:46:45;17.40;99.90
59999;DHT22;45859;51.378;6.736;2023-06-14T04:49:15;17.50;99.90
59999;DHT22;45859;51.378;6.736;2023-06-14T04:51:42;17.60;99.90
59999;DHT22;45859;51.378;6.736;2023-06-14T04:54:11;17.70;99.90
59999;DHT22;45859;51.378;6.736;2023-06-14T04:56:43;17.70;99.90
59999;DHT22;45859;51.378;6.736;2023-06-14T04:59:09;17.80;99.90
59999;DHT22;45859;51.378;6.736;2023-06-14T05:01:37;17.80;99.90
59999;DHT22;45859;51.378;6.736;2023-06-14T05:04:03;17.90;99.90
59999;DHT22;45859;51.378;6.736;2023-06-14T05:06:30;17.90;99.90
59999;DHT22;45859;51.378;6.736;2023-06-14T05:08:56;18.00;99.90
59999;DHT22;45859;51.378;6.736;2023-06-14T05:11:21;18.10;99.90
59999;DHT22;45859;51.378;6.736;2023-06-14T05:13:50;18.20;99.90
59999;DHT22;45859;51.378;6.736;2023-06-14T05:16:16;18.20;99.90
59999;DHT22;45859;51.378;6.736;2023-06-14T05:18:45;18.40;99.90
59999;DHT22;45859;51.378;6.736;2023-06-14T05:21:11;18.40;99.90
59999;DHT22;45859;51.378;6.736;2023-06-14T05:23:37;18.50;99.90
59999;DHT22;45859;51.378;6.736;2023-06-14T05:26:02;18.50;99.90
59999;DHT22;45859;51.378;6.736;2023-06-14T05:28:30;18.80;99.90
59999;DHT22;45859;51.378;6.736;2023-06-14T05:30:56;18.90;99.90
59999;DHT22;45859;51.378;6.736;2023-06-14T05:33:22;18.90;99.90
59999;DHT22;45859;51.378;6.736;2023-06-14T05:35:47;19.00;99.90
59999;DHT22;45859;51.378;6.736;2023-06-14T05:38:13;19.20;99.90
59999;DHT22;45859;51.378;6.736;2023-06-14T05:40:39;19.40;99.90
59999;DHT22;45859;51.378;6.736;2023-06-14T05:43:04;19.50;99.90
59999;DHT22;45859;51.378;6.736;2023-06-14T05:45:30;19.60;99.90
59999;DHT22;45859;51.378;6.736;2023-06-14T05:47:56;19.50;99.90
59999;DHT22;45859;51.378;6.736;2023-06-14T05:50:22;19.80;99.90
59999;DHT22;45859;51.378;6.736;2023-06-14T05:52:47;19.90;99.90
59999;DHT22;45859;51.378;6.736;2023-06-14T05:55:13;20.20;99.90
59999;DHT22;45859;51.378;6.736;2023-06-14T05:57:39;21.00;99.90
59999;DHT22;45859;51.378;6.736;2023-06-14T06:00:05;22.00;99.90
59999;DHT22;45859;51.378;6.736;2023-06-14T06:02:41;23.30;99.90
59999;DHT22;45859;51.378;6.736;2023-06-14T06:05:09;23.70;99.90
59999;DHT22;45859;51.378;6.736;2023-06-14T06:07:35;24.60;99.90
59999;DHT22;45859;51.378;6.736;2023-06-14T06:10:00;24.90;99.90
59999;DHT22;45859;51.378;6.736;2023-06-14T06:12:26;25.30;99.90
59999;DHT22;45859;51.378;6.736;2023-06-14T06:14:52;25.60;99.90
59999;DHT22;45859;51.378;6.736;2023-06-14T06:17:17;25.10;99.90
59999;DHT22;45859;51.378;6.736;2023-06-14T06:19:43;25.40;99.90
59999;DHT22;45859;51.378;6.736;2023-06-14T06:22:09;25.20;99.90
59999;DHT22;45859;51.378;6.736;2023-06-14T06:24:35;25.80;99.90
59999;DHT22;45859;51.378;6.736;2023-06-14T06:27:00;26.40;99.90
59999;DHT22;45859;51.378;6.736;2023-06-14T06:29:26;26.50;99.90
59999;DHT22;45859;51.378;6.736;2023-06-14T06:31:52;26.00;99.90
59999;DHT22;45859;51.378;6.736;2023-06-14T06:34:17;26.80;99.90
59999;DHT22;45859;51.378;6.736;2023-06-14T06:36:43;26.40;99.90
59999;DHT22;45859;51.378;6.736;2023-06-14T06:39:09;26.60;99.90
59999;DHT22;45859;51.378;6.736;2023-06-14T06:41:39;26.30;99.90
59999;DHT22;45859;51.378;6.736;2023-06-14T06:44:06;26.20;99.90
59999;DHT22;45859;51.378;6.736;2023-06-14T06:46:32;26.80;99.90
59999;DHT22;45859;51.378;6.736;2023-06-14T06:48:58;27.00;99.90
59999;DHT22;45859;51.378;6.736;2023-06-14T06:51:24;26.90;99.90
59999;DHT22;45859;51.378;6.736;2023-06-14T06:53:53;26.40;99.90
59999;DHT22;45859;51.378;6.736;2023-06-14T06:56:20;26.00;99.90
59999;DHT22;45859;51.378;6.736;2023-06-14T06:58:49;26.10;99.90
59999;DHT22;45859;51.378;6.736;2023-06-14T07:01:15;26.10;99.90
59999;DHT22;45859;51.378;6.736;2023-06-14T07:03:41;27.10;99.90
59999;DHT22;45859;51.378;6.736;2023-06-14T07:06:07;27.60;99.90
59999;DHT22;45859;51.378;6.736;2023-06-14T07:08:32;27.00;99.90
59999;DHT22;45859;51.378;6.736;2023-06-14T07:10:58;27.00;99.90
59999;DHT22;45859;51.378;6.736;2023-06-14T07:13:24;27.50;99.90
59999;DHT22;45859;51.378;6.736;2023-06-14T07:15:49;27.30;99.90
59999;DHT22;45859;51.378;6.736;2023-06-14T07:18:18;28.30;99.90
59999;DHT22;45859;51.378;6.736;2023-06-14T07:20:44;28.30;99.90
59999;DHT22;45859;51.378;6.736;2023-06-14T07:23:10;28.80;99.90
59999;DHT22;45859;51.378;6.736;2023-06-14T07:25:36;28.50;99.90
59999;DHT22;45859;51.378;6.736;2023-06-14T07:28:01;29.00;99.90
59999;DHT22;45859;51.378;6.736;2023-06-14T07:30:27;29.40;99.90
59999;DHT22;45859;51.378;6.736;2023-06-14T07:32:55;29.00;99.90
59999;DHT22;45859;51.378;6.736;2023-06-14T07:35:21;28.80;99.90
59999;DHT22;45859;51.378;6.736;2023-06-14T07:37:47;28.90;99.90
59999;DHT22;45859;51.378;6.736;2023-06-14T07:40:13;27.30;99.90
59999;DHT22;45859;51.378;6.736;2023-06-14T07:42:39;27.40;99.90
59999;DHT22;45859;51.378;6.736;2023-06-14T07:45:05;27.50;99.90
59999;DHT22;45859;51.378;6.736;2023-06-14T07:47:32;27.70;99.90
59999;DHT22;45859;51.378;6.736;2023-06-14T07:49:58;28.20;99.90
59999;DHT22;45859;51.378;6.736;2023-06-14T07:52:24;28.50;99.90
59999;DHT22;45859;51.378;6.736;2023-06-14T07:54:50;29.00;99.90
59999;DHT22;45859;51.378;6.736;2023-06-14T07:57:16;28.40;99.90
59999;DHT22;45859;51.378;6.736;2023-06-14T07:59:41;28.00;99.90
59999;DHT22;45859;51.378;6.736;2023-06-14T08:02:07;27.80;99.90
59999;DHT22;45859;51.378;6.736;2023-06-14T08:04:33;27.50;99.90
59999;DHT22;45859;51.378;6.736;2023-06-14T08:06:59;28.40;99.90
59999;DHT22;45859;51.378;6.736;2023-06-14T08:09:26;27.90;99.90
59999;DHT22;45859;51.378;6.736;2023-06-14T08:11:54;28.80;99.90
59999;DHT22;45859;51.378;6.736;2023-06-14T08:14:20;29.00;99.90
59999;DHT22;45859;51.378;6.736;2023-06-14T08:16:45;28.40;99.90
59999;DHT22;45859;51.378;6.736;2023-06-14T08:19:11;28.00;99.90
59999;DHT22;45859;51.378;6.736;2023-06-14T08:21:37;27.70;99.90
59999;DHT22;45859;51.378;6.736;2023-06-14T08:24:03;27.80;99.90
59999;DHT22;45859;51.378;6.736;2023-06-14T08:26:29;28.20;99.90
59999;DHT22;45859;51.378;6.736;2023-06-14T08:28:57;28.40;99.90
59999;DHT22;45859;51.378;6.736;2023-06-14T08:31:23;28.20;99.90
59999;DHT22;45859;51.378;6.736;2023-06-14T08:33:50;28.50;99.90
59999;DHT22;45859;51.378;6.736;2023-06-14T08:36:15;28.50;99.90
59999;DHT22;45859;51.378;6.736;2023-06-14T08:38:41;27.30;99.90
59999;DHT22;45859;51.378;6.736;2023-06-14T08:41:08;27.30;99.90
59999;DHT22;45859;51.378;6.736;2023-06-14T08:43:36;27.60;99.90
59999;DHT22;45859;51.378;6.736;2023-06-14T08:46:03;28.00;99.90
59999;DHT22;45859;51.378;6.736;2023-06-14T08:48:29;27.60;99.90
59999;DHT22;45859;51.378;6.736;2023-06-14T08:50:59;27.30;99.90
59999;DHT22;45859;51.378;6.736;2023-06-14T08:53:32;26.60;99.90
59999;DHT22;45859;51.378;6.736;2023-06-14T08:56:02;26.60;99.90
59999;DHT22;45859;51.378;6.736;2023-06-14T08:58:34;26.50;99.90
59999;DHT22;45859;51.378;6.736;2023-06-14T09:01:03;26.50;99.90
59999;DHT22;45859;51.378;6.736;2023-06-14T09:03:30;26.40;99.90
59999;DHT22;45859;51.378;6.736;2023-06-14T09:05:57;26.90;99.90
59999;DHT22;45859;51.378;6.736;2023-06-14T09:08:25;26.80;99.90
59999;DHT22;45859;51.378;6.736;2023-06-14T09:10:51;26.70;99.90
59999;DHT22;45859;51.378;6.736;2023-06-14T09:13:17;26.70;99.90
59999;DHT22;45859;51.378;6.736;2023-06-14T09:15:43;27.50;99.90
59999;DHT22;45859;51.378;6.736;2023-06-14T09:18:09;27.90;99.90
59999;DHT22;45859;51.378;6.736;2023-06-14T09:20:35;27.70;99.90
59999;DHT22;45859;51.378;6.736;2023-06-14T09:23:01;27.70;99.90
59999;DHT22;45859;51.378;6.736;2023-06-14T09:25:28;27.90;99.90
59999;DHT22;45859;51.378;6.736;2023-06-14T09:27:53;28.00;99.90
59999;DHT22;45859;51.378;6.736;2023-06-14T09:30:20;28.30;99.90
59999;DHT22;45859;51.378;6.736;2023-06-14T09:32:46;28.40;99.90
59999;DHT22;45859;51.378;6.736;2023-06-14T09:35:12;28.60;99.90
59999;DHT22;45859;51.378;6.736;2023-06-14T09:37:38;28.30;99.90
59999;DHT22;45859;51.378;6.736;2023-06-14T09:40:05;27.70;99.90
59999;DHT22;45859;51.378;6.736;2023-06-14T09:42:32;26.70;99.90
59999;DHT22;45859;51.378;6.736;2023-06-14T09:45:02;27.20;99.90
59999;DHT22;45859;51.378;6.736;2023-06-14T09:47:30;27.10;99.90
59999;DHT22;45859;51.378;6.736;2023-06-14T09:49:56;29.10;99.90
59999;DHT22;45859;51.378;6.736;2023-06-14T09:52:22;29.10;99.90
59999;DHT22;45859;51.378;6.736;2023-06-14T09:54:49;27.80;99.90
59999;DHT22;45859;51.378;6.736;2023-06-14T09:57:17;28.70;99.90
59999;DHT22;45859;51.378;6.736;2023-06-14T09:59:47;27.60;99.90
59999;DHT22;45859;51.378;6.736;2023-06-14T10:02:29;27.10;99.90
59999;DHT22;45859;51.378;6.736;2023-06-14T10:05:03;26.40;99.90
59999;DHT22;45859;51.378;6.736;2023-06-14T10:07:37;27.10;99.90
59999;DHT22;45859;51.378;6.736;2023-06-14T10:10:04;26.50;99.90
59999;DHT22;45859;51.378;6.736;2023-06-14T10:12:31;27.20;99.90
59999;DHT22;45859;51.378;6.736;2023-06-14T10:14:57;26.40;99.90
59999;DHT22;45859;51.378;6.736;2023-06-14T10:17:32;25.90;99.90
59999;DHT22;45859;51.378;6.736;2023-06-14T10:20:28;25.20;99.90
59999;DHT22;45859;51.378;6.736;2023-06-14T10:23:03;25.30;99.90
59999;DHT22;45859;51.378;6.736;2023-06-14T10:25:32;24.80;99.90
59999;DHT22;45859;51.378;6.736;2023-06-14T10:28:14;24.40;99.90
59999;DHT22;45859;51.378;6.736;2023-06-14T10:31:08;24.20;99.90
59999;DHT22;45859;51.378;6.736;2023-06-14T10:33:49;24.30;99.90
59999;DHT22;45859;51.378;6.736;2023-06-14T10:39:13;24.20;99.90
59999;DHT22;45859;51.378;6.736;2023-06-14T10:41:41;23.80;99.90
59999;DHT22;45859;51.378;6.736;2023-06-14T10:46:39;24.00;99.90
59999;DHT22;45859;51.378;6.736;2023-06-14T10:51:40;23.70;99.90
59999;DHT22;45859;51.378;6.736;2023-06-14T10:54:20;23.70;99.90
59999;DHT22;45859;51.378;6.736;2023-06-14T10:56:47;23.40;99.90
59999;DHT22;45859;51.378;6.736;2023-06-14T10:59:14;23.60;99.90
59999;DHT22;45859;51.378;6.736;2023-06-14T11:04:20;23.40;99.90
59999;DHT22;45859;51.378;6.736;2023-06-14T11:06:47;23.40;99.90
59999;DHT22;45859;51.378;6.736;2023-06-14T11:12:02;23.60;99.90
59999;DHT22;45859;51.378;6.736;2023-06-14T11:14:31;23.20;99.90
59999;DHT22;45859;51.378;6.736;2023-06-14T11:16:57;23.40;99.90
59999;DHT22;45859;51.378;6.736;2023-06-14T11:19:22;23.20;99.90
59999;DHT22;45859;51.378;6.736;2023-06-14T11:21:48;23.20;99.90
59999;DHT22;45859;51.378;6.736;2023-06-14T11:24:14;23.10;99.90
59999;DHT22;45859;51.378;6.736;2023-06-14T11:26:41;23.20;99.90
59999;DHT22;45859;51.378;6.736;2023-06-14T11:29:07;23.30;99.90
59999;DHT22;45859;51.378;6.736;2023-06-14T11:31:32;23.20;99.90
59999;DHT22;45859;51.378;6.736;2023-06-14T11:33:59;23.00;99.90
59999;DHT22;45859;51.378;6.736;2023-06-14T11:36:34;22.90;99.90
59999;DHT22;45859;51.378;6.736;2023-06-14T11:39:01;23.00;99.90
59999;DHT22;45859;51.378;6.736;2023-06-14T11:44:03;23.30;99.90
59999;DHT22;45859;51.378;6.736;2023-06-14T11:46:29;23.20;99.90
59999;DHT22;45859;51.378;6.736;2023-06-14T11:48:55;23.30;99.90
59999;DHT22;45859;51.378;6.736;2023-06-14T11:51:21;23.10;99.90
59999;DHT22;45859;51.378;6.736;2023-06-14T11:53:47;23.00;99.90
59999;DHT22;45859;51.378;6.736;2023-06-14T11:56:13;23.00;99.90
59999;DHT22;45859;51.378;6.736;2023-06-14T11:58:39;23.10;99.90
59999;DHT22;45859;51.378;6.736;2023-06-14T12:01:05;23.20;99.90
59999;DHT22;45859;51.378;6.736;2023-06-14T12:03:31;23.30;99.90
59999;DHT22;45859;51.378;6.736;2023-06-14T12:06:07;23.20;99.90
59999;DHT22;45859;51.378;6.736;2023-06-14T12:08:37;23.00;99.90
59999;DHT22;45859;51.378;6.736;2023-06-14T12:11:13;23.00;99.90
59999;DHT22;45859;51.378;6.736;2023-06-14T12:13:40;23.00;99.90
59999;DHT22;45859;51.378;6.736;2023-06-14T12:16:09;23.00;99.90
59999;DHT22;45859;51.378;6.736;2023-06-14T12:18:36;23.10;99.90
59999;DHT22;45859;51.378;6.736;2023-06-14T12:21:06;23.20;99.90
59999;DHT22;45859;51.378;6.736;2023-06-14T12:26:16;23.20;99.90
59999;DHT22;45859;51.378;6.736;2023-06-14T12:28:42;23.40;99.90
59999;DHT22;45859;51.378;6.736;2023-06-14T12:31:09;23.20;99.90
59999;DHT22;45859;51.378;6.736;2023-06-14T12:33:35;23.20;99.90
59999;DHT22;45859;51.378;6.736;2023-06-14T12:36:03;23.10;99.90
59999;DHT22;45859;51.378;6.736;2023-06-14T12:38:29;23.10;99.90
59999;DHT22;45859;51.378;6.736;2023-06-14T12:40:55;23.20;99.90
59999;DHT22;45859;51.378;6.736;2023-06-14T12:43:20;23.20;99.90
59999;DHT22;45859;51.378;6.736;2023-06-14T12:45:46;23.20;99.90
59999;DHT22;45859;51.378;6.736;2023-06-14T12:48:12;23.30;99.90
59999;DHT22;45859;51.378;6.736;2023-06-14T12:50:37;23.20;99.90
59999;DHT22;45859;51.378;6.736;2023-06-14T12:53:03;23.20;99.90
59999;DHT22;45859;51.378;6.736;2023-06-14T12:55:29;23.30;99.90
59999;DHT22;45859;51.378;6.736;2023-06-14T12:57:54;23.20;99.90
59999;DHT22;45859;51.378;6.736;2023-06-14T13:00:20;23.40;99.90
59999;DHT22;45859;51.378;6.736;2023-06-14T13:02:47;23.30;99.90
59999;DHT22;45859;51.378;6.736;2023-06-14T13:05:13;23.30;99.90
59999;DHT22;45859;51.378;6.736;2023-06-14T13:07:38;23.30;99.90
59999;DHT22;45859;51.378;6.736;2023-06-14T13:10:04;23.30;99.90
59999;DHT22;45859;51.378;6.736;2023-06-14T13:12:30;23.30;99.90
59999;DHT22;45859;51.378;6.736;2023-06-14T13:14:55;23.50;99.90
59999;DHT22;45859;51.378;6.736;2023-06-14T13:17:21;23.60;99.90
59999;DHT22;45859;51.378;6.736;2023-06-14T13:19:47;23.50;99.90
59999;DHT22;45859;51.378;6.736;2023-06-14T13:22:13;23.40;99.90
59999;DHT22;45859;51.378;6.736;2023-06-14T13:24:38;23.50;99.90
59999;DHT22;45859;51.378;6.736;2023-06-14T13:27:04;23.40;99.90
59999;DHT22;45859;51.378;6.736;2023-06-14T13:29:30;23.50;99.90
59999;DHT22;45859;51.378;6.736;2023-06-14T13:31:56;23.50;99.90
59999;DHT22;45859;51.378;6.736;2023-06-14T13:34:22;23.60;99.90
59999;DHT22;45859;51.378;6.736;2023-06-14T13:36:49;23.60;99.90
59999;DHT22;45859;51.378;6.736;2023-06-14T13:39:15;23.50;99.90
59999;DHT22;45859;51.378;6.736;2023-06-14T13:41:41;23.50;99.90
59999;DHT22;45859;51.378;6.736;2023-06-14T13:44:06;23.60;99.90
59999;DHT22;45859;51.378;6.736;2023-06-14T13:46:32;23.50;99.90
59999;DHT22;45859;51.378;6.736;2023-06-14T13:48:58;23.70;99.90
59999;DHT22;45859;51.378;6.736;2023-06-14T13:51:25;23.70;99.90
59999;DHT22;45859;51.378;6.736;2023-06-14T13:53:52;23.50;99.90
59999;DHT22;45859;51.378;6.736;2023-06-14T13:56:18;23.40;99.90
59999;DHT22;45859;51.378;6.736;2023-06-14T13:58:44;23.50;99.90
59999;DHT22;45859;51.378;6.736;2023-06-14T14:01:10;23.60;99.90
59999;DHT22;45859;51.378;6.736;2023-06-14T14:03:37;23.50;99.90
59999;DHT22;45859;51.378;6.736;2023-06-14T14:06:04;23.50;99.90
59999;DHT22;45859;51.378;6.736;2023-06-14T14:08:31;23.70;99.90
59999;DHT22;45859;51.378;6.736;2023-06-14T14:10:56;23.60;99.90
59999;DHT22;45859;51.378;6.736;2023-06-14T14:13:22;23.70;99.90
59999;DHT22;45859;51.378;6.736;2023-06-14T14:15:48;23.70;99.90
59999;DHT22;45859;51.378;6.736;2023-06-14T14:18:18;23.70;99.90
59999;DHT22;45859;51.378;6.736;2023-06-14T14:20:46;23.70;99.90
59999;DHT22;45859;51.378;6.736;2023-06-14T14:23:11;23.70;99.90
59999;DHT22;45859;51.378;6.736;2023-06-14T14:25:37;23.70;99.90
59999;DHT22;45859;51.378;6.736;2023-06-14T14:28:03;23.60;99.90
59999;DHT22;45859;51.378;6.736;2023-06-14T14:30:28;23.80;99.90
59999;DHT22;45859;51.378;6.736;2023-06-14T14:32:54;23.60;99.90
59999;DHT22;45859;51.378;6.736;2023-06-14T14:35:21;23.80;99.90
59999;DHT22;45859;51.378;6.736;2023-06-14T14:37:48;23.70;99.90
59999;DHT22;45859;51.378;6.736;2023-06-14T14:40:14;23.80;99.90
59999;DHT22;45859;51.378;6.736;2023-06-14T14:42:40;23.80;99.90
59999;DHT22;45859;51.378;6.736;2023-06-14T14:45:06;23.90;99.90
59999;DHT22;45859;51.378;6.736;2023-06-14T14:47:32;23.90;99.90
59999;DHT22;45859;51.378;6.736;2023-06-14T14:49:58;23.90;99.90
59999;DHT22;45859;51.378;6.736;2023-06-14T14:52:24;23.80;99.90
59999;DHT22;45859;51.378;6.736;2023-06-14T14:54:50;23.80;99.90
59999;DHT22;45859;51.378;6.736;2023-06-14T14:57:16;23.80;99.90
59999;DHT22;45859;51.378;6.736;2023-06-14T14:59:41;23.90;99.90
59999;DHT22;45859;51.378;6.736;2023-06-14T15:02:07;23.90;99.90
59999;DHT22;45859;51.378;6.736;2023-06-14T15:04:33;24.00;99.90
59999;DHT22;45859;51.378;6.736;2023-06-14T15:06:59;24.00;99.90
59999;DHT22;45859;51.378;6.736;2023-06-14T15:09:25;23.90;99.90
59999;DHT22;45859;51.378;6.736;2023-06-14T15:11:51;23.70;99.90
59999;DHT22;45859;51.378;6.736;2023-06-14T15:14:16;23.80;99.90
59999;DHT22;45859;51.378;6.736;2023-06-14T15:16:42;23.90;99.90
59999;DHT22;45859;51.378;6.736;2023-06-14T15:19:08;23.80;99.90
59999;DHT22;45859;51.378;6.736;2023-06-14T15:21:33;23.70;99.90
59999;DHT22;45859;51.378;6.736;2023-06-14T15:23:59;23.90;99.90
59999;DHT22;45859;51.378;6.736;2023-06-14T15:26:25;23.80;99.90
59999;DHT22;45859;51.378;6.736;2023-06-14T15:28:50;23.90;99.90
59999;DHT22;45859;51.378;6.736;2023-06-14T15:31:16;23.90;99.90
59999;DHT22;45859;51.378;6.736;2023-06-14T15:33:42;23.90;99.90
59999;DHT22;45859;51.378;6.736;2023-06-14T15:36:09;23.90;99.90
59999;DHT22;45859;51.378;6.736;2023-06-14T15:38:35;23.80;99.90
59999;DHT22;45859;51.378;6.736;2023-06-14T15:41:01;23.70;99.90
59999;DHT22;45859;51.378;6.736;2023-06-14T15:43:26;23.80;99.90
59999;DHT22;45859;51.378;6.736;2023-06-14T15:45:52;23.80;99.90
59999;DHT22;45859;51.378;6.736;2023-06-14T15:48:18;23.80;99.90
59999;DHT22;45859;51.378;6.736;2023-06-14T15:50:43;23.80;99.90